createdAt,value
2018-06-14T00:00:48.136Z,13.10
2018-06-14T00:03:17.211Z,13.10
2018-06-14T00:05:46.283Z,13.00
2018-06-14T00:08:15.401Z,13.00
2018-06-14T00:10:44.451Z,12.90
2018-06-14T00:13:13.520Z,12.90
2018-06-14T00:15:42.724Z,12.90
2018-06-14T00:18:11.855Z,12.80
2018-06-14T00:20:40.887Z,12.80
2018-06-14T00:23:09.936Z,12.80
2018-06-14T00:25:39.040Z,12.70
2018-06-14T00:28:08.087Z,12.70
2018-06-14T00:30:37.140Z,12.70
2018-06-14T00:33:06.204Z,12.70
2018-06-14T00:35:35.279Z,12.60
2018-06-14T00:38:04.367Z,12.60
2018-06-14T00:40:33.454Z,12.50
2018-06-14T00:45:31.207Z,12.40
2018-06-14T00:48:00.271Z,12.30
2018-06-14T00:50:29.376Z,12.30
2018-06-14T00:52:58.467Z,12.30
2018-06-14T00:55:27.555Z,12.30
2018-06-14T00:57:56.671Z,12.20
2018-06-14T01:00:25.745Z,12.20
2018-06-14T01:02:54.792Z,12.30
2018-06-14T01:05:23.882Z,12.30
2018-06-14T01:07:53.127Z,12.20
2018-06-14T01:10:22.224Z,12.20
2018-06-14T01:12:51.295Z,12.20
2018-06-14T01:15:20.383Z,12.10
2018-06-14T01:17:49.439Z,12.10
2018-06-14T01:20:18.715Z,12.10
2018-06-14T01:22:47.868Z,12.00
2018-06-14T01:25:16.908Z,12.00
2018-06-14T01:27:46.055Z,12.00
2018-06-14T01:30:15.183Z,12.00
2018-06-14T01:32:44.262Z,12.00
2018-06-14T01:35:13.343Z,11.90
2018-06-14T01:37:53.939Z,11.90
2018-06-14T01:40:23.024Z,11.90
2018-06-14T01:42:52.094Z,11.90
2018-06-14T01:45:21.199Z,11.90
2018-06-14T01:47:50.290Z,11.90
2018-06-14T01:50:19.363Z,11.90
2018-06-14T01:52:48.434Z,11.90
2018-06-14T01:55:17.531Z,11.90
2018-06-14T01:57:46.628Z,11.90
2018-06-14T02:00:15.684Z,11.80
2018-06-14T02:02:44.783Z,11.80
2018-06-14T02:05:13.956Z,11.80
2018-06-14T02:07:43.030Z,11.70
2018-06-14T02:10:12.087Z,11.70
2018-06-14T02:12:41.167Z,11.70
2018-06-14T02:15:16.229Z,11.60
2018-06-14T02:17:45.291Z,11.60
2018-06-14T02:20:14.366Z,11.60
2018-06-14T02:22:43.466Z,11.60
2018-06-14T02:25:12.566Z,11.50
2018-06-14T02:27:41.623Z,11.50
2018-06-14T02:30:10.720Z,11.50
2018-06-14T02:32:39.803Z,11.40
2018-06-14T02:35:08.887Z,11.40
2018-06-14T02:37:42.059Z,11.40
2018-06-14T02:40:12.795Z,11.40
2018-06-14T02:42:42.912Z,11.40
2018-06-14T02:45:11.977Z,11.40
2018-06-14T02:47:41.207Z,11.40
2018-06-14T02:50:10.592Z,11.40
2018-06-14T02:52:39.670Z,11.40
2018-06-14T02:55:08.743Z,11.40
2018-06-14T02:57:37.824Z,11.40
2018-06-14T03:00:07.461Z,11.40
2018-06-14T03:02:36.528Z,11.30
2018-06-14T03:05:05.586Z,11.40
2018-06-14T03:07:35.707Z,11.40
2018-06-14T03:10:05.809Z,11.40
2018-06-14T03:12:34.866Z,11.40
2018-06-14T03:15:03.959Z,11.40
2018-06-14T03:17:33.064Z,11.40
2018-06-14T03:20:02.139Z,11.30
2018-06-14T03:22:31.246Z,11.40
2018-06-14T03:25:00.299Z,11.40
2018-06-14T03:27:29.371Z,11.40
2018-06-14T03:29:58.428Z,11.40
2018-06-14T03:32:27.536Z,11.40
2018-06-14T03:34:56.589Z,11.50
2018-06-14T03:37:25.669Z,11.50
2018-06-14T03:39:54.721Z,11.50
2018-06-14T03:42:23.790Z,11.50
2018-06-14T03:44:52.923Z,11.50
2018-06-14T03:47:21.972Z,11.60
2018-06-14T03:49:51.055Z,11.60
2018-06-14T03:52:20.107Z,11.80
2018-06-14T03:57:17.867Z,12.20
2018-06-14T03:59:46.921Z,12.40
2018-06-14T04:02:15.999Z,12.60
2018-06-14T04:04:45.102Z,12.70
2018-06-14T04:07:14.195Z,12.90
2018-06-14T04:09:43.271Z,13.00
2018-06-14T04:12:12.332Z,13.10
2018-06-14T04:14:41.431Z,13.20
2018-06-14T04:17:10.520Z,13.30
2018-06-14T04:19:39.595Z,13.40
2018-06-14T04:22:08.663Z,13.50
2018-06-14T04:24:37.736Z,13.60
2018-06-14T04:27:06.829Z,13.60
2018-06-14T04:29:35.902Z,13.60
2018-06-14T04:32:05.085Z,13.60
2018-06-14T04:34:34.172Z,13.70
2018-06-14T04:37:03.236Z,13.70
2018-06-14T04:39:32.410Z,13.80
2018-06-14T04:42:01.564Z,13.80
2018-06-14T04:44:30.685Z,13.90
2018-06-14T04:46:59.746Z,14.00
2018-06-14T04:49:28.812Z,14.10
2018-06-14T04:51:57.997Z,14.10
2018-06-14T04:54:27.085Z,14.20
2018-06-14T04:56:56.138Z,14.20
2018-06-14T04:59:25.229Z,14.30
2018-06-14T05:01:54.356Z,14.40
2018-06-14T05:04:23.418Z,14.50
2018-06-14T05:06:52.475Z,14.60
2018-06-14T05:09:21.547Z,14.70
2018-06-14T05:11:50.625Z,15.00
2018-06-14T05:14:19.734Z,15.10
2018-06-14T05:16:48.816Z,15.20
2018-06-14T05:19:17.855Z,15.30
2018-06-14T05:21:46.936Z,15.40
2018-06-14T05:24:16.016Z,15.50
2018-06-14T05:26:45.092Z,15.60
2018-06-14T05:29:14.211Z,15.70
2018-06-14T05:31:43.293Z,15.90
2018-06-14T05:34:12.354Z,15.90
2018-06-14T05:36:41.427Z,16.00
2018-06-14T05:39:12.163Z,16.00
2018-06-14T05:41:41.771Z,16.20
2018-06-14T05:44:11.071Z,16.30
2018-06-14T05:46:40.255Z,16.40
2018-06-14T05:49:09.379Z,16.50
2018-06-14T05:51:38.455Z,16.60
2018-06-14T05:54:07.546Z,16.60
2018-06-14T05:56:36.603Z,16.70
2018-06-14T05:59:05.688Z,16.80
2018-06-14T06:01:34.767Z,16.90
2018-06-14T06:04:03.878Z,16.90
2018-06-14T06:06:32.924Z,17.00
2018-06-14T06:09:02.068Z,17.10
2018-06-14T06:11:31.138Z,17.30
2018-06-14T06:14:00.271Z,17.50
2018-06-14T06:16:29.359Z,17.70
2018-06-14T06:18:58.424Z,17.90
2018-06-14T06:21:27.487Z,18.00
2018-06-14T06:23:56.548Z,18.20
2018-06-14T06:26:25.693Z,18.30
2018-06-14T06:28:54.676Z,18.50
2018-06-14T06:31:24.041Z,18.60
2018-06-14T06:33:53.425Z,18.60
2018-06-14T06:36:22.522Z,18.80
2018-06-14T06:38:51.621Z,19.00
2018-06-14T06:41:20.834Z,19.00
2018-06-14T06:43:49.909Z,19.10
2018-06-14T06:46:19.033Z,19.30
2018-06-14T06:48:48.128Z,19.40
2018-06-14T06:51:17.256Z,19.60
2018-06-14T06:53:46.298Z,19.70
2018-06-14T06:56:15.381Z,19.80
2018-06-14T06:58:44.536Z,19.90
2018-06-14T07:01:13.560Z,20.00
2018-06-14T07:03:42.631Z,20.10
2018-06-14T07:06:11.704Z,20.30
2018-06-14T07:08:40.755Z,20.40
2018-06-14T07:11:09.848Z,20.60
2018-06-14T07:13:38.911Z,20.80
2018-06-14T07:16:07.995Z,21.00
2018-06-14T07:18:37.065Z,21.20
2018-06-14T07:21:06.128Z,21.30
2018-06-14T07:23:35.210Z,21.30
2018-06-14T07:26:04.414Z,21.30
2018-06-14T07:28:33.452Z,21.10
2018-06-14T07:31:02.537Z,20.90
2018-06-14T07:33:31.628Z,20.90
2018-06-14T07:36:00.676Z,21.00
2018-06-14T07:38:29.751Z,20.90
2018-06-14T07:40:58.839Z,20.90
2018-06-14T07:45:56.603Z,21.00
2018-06-14T07:48:25.667Z,21.00
2018-06-14T07:50:55.596Z,20.90
2018-06-14T07:53:24.669Z,21.00
2018-06-14T07:55:53.735Z,20.90
2018-06-14T07:58:22.916Z,20.80
2018-06-14T08:00:52.195Z,20.70
2018-06-14T08:03:21.436Z,20.70
2018-06-14T08:05:50.515Z,20.70
2018-06-14T08:08:19.571Z,20.60
2018-06-14T08:10:48.662Z,20.60
2018-06-14T08:13:17.756Z,20.80
2018-06-14T08:15:46.840Z,20.60
2018-06-14T08:18:15.922Z,20.40
2018-06-14T08:20:44.980Z,20.00
2018-06-14T08:23:14.095Z,19.80
2018-06-14T08:25:43.184Z,20.00
2018-06-14T08:28:12.236Z,20.10
2018-06-14T08:30:41.285Z,20.20
2018-06-14T08:33:10.347Z,20.00
2018-06-14T08:35:39.415Z,19.40
2018-06-14T08:38:08.544Z,19.10
2018-06-14T08:40:37.852Z,19.00
2018-06-14T08:43:06.956Z,19.10
2018-06-14T08:45:36.048Z,19.20
2018-06-14T08:48:05.163Z,19.50
2018-06-14T08:50:34.207Z,19.90
2018-06-14T08:53:03.431Z,20.20
2018-06-14T08:55:32.869Z,20.60
2018-06-14T08:58:01.937Z,20.90
2018-06-14T09:00:30.991Z,21.20
2018-06-14T09:03:00.096Z,21.20
2018-06-14T09:05:29.130Z,21.10
2018-06-14T09:07:58.332Z,20.90
2018-06-14T09:10:27.428Z,21.20
2018-06-14T09:12:56.503Z,21.20
2018-06-14T09:15:25.691Z,21.40
2018-06-14T09:17:54.828Z,21.40
2018-06-14T09:20:23.885Z,21.70
2018-06-14T09:22:52.924Z,22.10
2018-06-14T09:25:22.040Z,22.20
2018-06-14T09:27:51.111Z,22.60
2018-06-14T09:30:20.375Z,23.00
2018-06-14T09:32:49.572Z,23.30
2018-06-14T09:35:18.635Z,23.30
2018-06-14T09:37:47.763Z,23.30
2018-06-14T09:40:16.855Z,23.50
2018-06-14T09:42:46.081Z,23.80
2018-06-14T09:45:15.140Z,24.10
2018-06-14T09:47:44.191Z,24.30
2018-06-14T09:50:13.295Z,24.30
2018-06-14T09:52:42.338Z,24.40
2018-06-14T09:55:11.445Z,24.20
2018-06-14T09:57:40.513Z,24.00
2018-06-14T10:00:09.593Z,23.70
2018-06-14T10:02:38.935Z,23.40
2018-06-14T10:05:08.191Z,23.20
2018-06-14T10:07:37.275Z,23.10
2018-06-14T10:10:06.347Z,23.00
2018-06-14T10:12:36.572Z,23.10
2018-06-14T10:15:05.954Z,23.20
2018-06-14T10:17:35.197Z,23.30
2018-06-14T10:20:04.339Z,23.30
2018-06-14T10:22:33.399Z,23.20
2018-06-14T10:25:02.476Z,23.30
2018-06-14T10:27:31.736Z,23.50
2018-06-14T10:30:00.855Z,23.80
2018-06-14T10:32:29.952Z,23.70
2018-06-14T10:34:58.984Z,23.90
2018-06-14T10:39:56.772Z,24.30
2018-06-14T10:42:25.861Z,24.30
2018-06-14T10:44:54.993Z,24.00
2018-06-14T10:47:24.054Z,23.60
2018-06-14T10:49:53.137Z,23.40
2018-06-14T10:52:22.294Z,23.30
2018-06-14T10:54:51.329Z,23.40
2018-06-14T10:57:20.432Z,23.30
2018-06-14T10:59:49.544Z,23.40
2018-06-14T11:04:43.195Z,23.20
2018-06-14T11:07:12.271Z,22.90
2018-06-14T11:09:41.382Z,22.90
2018-06-14T11:12:10.463Z,22.80
2018-06-14T11:14:39.612Z,22.70
2018-06-14T11:17:08.708Z,22.30
2018-06-14T11:19:37.796Z,22.10
2018-06-14T11:22:06.887Z,22.10
2018-06-14T11:24:35.987Z,22.20
2018-06-14T11:27:05.235Z,22.40
2018-06-14T11:29:34.465Z,22.50
2018-06-14T11:32:03.587Z,22.60
2018-06-14T11:34:32.707Z,22.70
2018-06-14T11:37:01.792Z,22.80
2018-06-14T11:39:31.010Z,23.00
2018-06-14T11:42:00.267Z,23.10
2018-06-14T11:44:29.324Z,23.10
2018-06-14T11:46:58.455Z,23.20
2018-06-14T11:49:27.522Z,23.10
2018-06-14T11:51:56.610Z,22.90
2018-06-14T11:54:25.676Z,22.90
2018-06-14T11:56:54.733Z,22.90
2018-06-14T11:59:23.889Z,22.70
2018-06-14T12:01:52.959Z,22.60
2018-06-14T12:04:22.054Z,22.70
2018-06-14T12:06:51.203Z,22.60
2018-06-14T12:09:20.343Z,22.60
2018-06-14T12:11:49.643Z,22.70
2018-06-14T12:14:18.743Z,22.70
2018-06-14T12:16:47.836Z,22.50
2018-06-14T12:19:17.024Z,22.50
2018-06-14T12:21:46.128Z,22.50
2018-06-14T12:24:15.178Z,22.20
2018-06-14T12:26:44.264Z,21.90
2018-06-14T12:29:13.336Z,21.60
2018-06-14T12:31:42.448Z,21.70
2018-06-14T12:34:11.519Z,21.90
2018-06-14T12:36:40.599Z,21.90
2018-06-14T12:39:09.784Z,22.00
2018-06-14T12:41:38.877Z,22.10
2018-06-14T12:44:08.324Z,22.10
2018-06-14T12:46:37.399Z,22.00
2018-06-14T12:49:06.468Z,22.00
2018-06-14T12:51:35.616Z,22.20
2018-06-14T12:54:05.787Z,22.30
2018-06-14T12:56:34.896Z,22.40
2018-06-14T12:59:03.992Z,22.60
2018-06-14T13:01:33.096Z,22.80
2018-06-14T13:04:02.244Z,22.90
2018-06-14T13:06:31.422Z,23.00
2018-06-14T13:09:00.477Z,23.00
2018-06-14T13:11:29.521Z,23.10
2018-06-14T13:13:58.647Z,23.10
2018-06-14T13:16:27.775Z,23.00
2018-06-14T13:18:56.942Z,23.10
2018-06-14T13:21:26.094Z,22.80
2018-06-14T13:23:55.220Z,22.80
2018-06-14T13:26:24.298Z,22.80
2018-06-14T13:28:53.423Z,22.70
2018-06-14T13:31:22.554Z,22.90
2018-06-14T13:33:51.731Z,23.00
2018-06-14T13:36:20.812Z,23.00
2018-06-14T13:38:49.885Z,22.90
2018-06-14T13:41:19.014Z,22.80
2018-06-14T13:43:48.092Z,22.70
2018-06-14T13:46:17.199Z,22.80
2018-06-14T13:48:46.422Z,23.00
2018-06-14T13:51:15.483Z,23.20
2018-06-14T13:53:44.571Z,23.50
2018-06-14T13:56:13.719Z,23.50
2018-06-14T13:58:42.868Z,23.60
2018-06-14T14:01:12.090Z,23.60
2018-06-14T14:03:41.043Z,23.70
2018-06-14T14:06:10.176Z,23.70
2018-06-14T14:08:39.307Z,23.70
2018-06-14T14:11:08.315Z,23.70
2018-06-14T14:13:37.414Z,23.70
2018-06-14T14:16:06.498Z,23.70
2018-06-14T14:18:35.537Z,23.70
2018-06-14T14:21:04.609Z,23.80
2018-06-14T14:23:33.689Z,23.90
2018-06-14T14:26:02.778Z,24.10
2018-06-14T14:28:32.099Z,24.10
2018-06-14T14:31:01.181Z,24.20
2018-06-14T14:33:31.127Z,24.30
2018-06-14T14:36:00.211Z,24.30
2018-06-14T14:38:29.608Z,24.30
2018-06-14T14:40:58.811Z,24.30
2018-06-14T14:43:27.911Z,24.30
2018-06-14T14:45:57.000Z,24.50
2018-06-14T14:48:26.032Z,24.70
2018-06-14T14:50:55.231Z,24.80
2018-06-14T14:53:24.323Z,24.70
2018-06-14T14:55:53.384Z,25.00
2018-06-14T14:58:22.573Z,25.00
2018-06-14T15:00:51.785Z,25.20
2018-06-14T15:03:20.859Z,25.10
2018-06-14T15:05:49.959Z,25.00
2018-06-14T15:08:19.035Z,25.30
2018-06-14T15:10:48.155Z,25.90
2018-06-14T15:13:17.215Z,26.60
2018-06-14T15:15:46.365Z,27.00
2018-06-14T15:18:15.453Z,27.40
2018-06-14T15:20:44.540Z,29.10
2018-06-14T15:23:13.664Z,29.30
2018-06-14T15:25:43.464Z,29.40
2018-06-14T15:28:12.608Z,29.80
2018-06-14T15:30:41.691Z,30.60
2018-06-14T15:33:10.807Z,32.50
2018-06-14T15:35:39.932Z,33.30
2018-06-14T15:38:09.031Z,33.60
2018-06-14T15:40:38.120Z,34.60
2018-06-14T15:45:35.916Z,34.90
2018-06-14T15:48:05.000Z,35.00
2018-06-14T15:50:34.053Z,35.10
2018-06-14T15:53:03.096Z,34.80
2018-06-14T15:55:45.028Z,34.50
2018-06-14T15:58:14.141Z,34.60
2018-06-14T16:00:43.345Z,35.00
2018-06-14T16:03:12.375Z,35.50
2018-06-14T16:05:41.472Z,35.80
2018-06-14T16:08:10.613Z,36.50
2018-06-14T16:10:39.681Z,37.20
2018-06-14T16:13:08.783Z,37.80
2018-06-14T16:15:37.885Z,37.50
2018-06-14T16:18:07.338Z,36.60
2018-06-14T16:20:36.575Z,35.00
2018-06-14T16:23:06.018Z,33.00
2018-06-14T16:25:35.160Z,32.90
2018-06-14T16:28:04.402Z,33.30
2018-06-14T16:30:33.690Z,33.30
2018-06-14T16:33:02.740Z,33.80
2018-06-14T16:35:31.823Z,34.50
2018-06-14T16:38:01.257Z,34.90
2018-06-14T16:40:30.519Z,35.30
2018-06-14T16:42:59.608Z,35.30
2018-06-14T16:45:28.655Z,34.60
2018-06-14T16:47:57.743Z,34.40
2018-06-14T16:50:26.839Z,34.20
2018-06-14T16:52:56.037Z,33.80
2018-06-14T16:55:25.100Z,33.10
2018-06-14T16:57:54.209Z,32.20
2018-06-14T17:00:23.298Z,31.20
2018-06-14T17:02:52.481Z,30.80
2018-06-14T17:05:21.581Z,30.30
2018-06-14T17:07:50.690Z,29.90
2018-06-14T17:10:19.782Z,28.80
2018-06-14T17:12:48.856Z,27.50
2018-06-14T17:15:18.166Z,26.50
2018-06-14T17:17:47.290Z,26.20
2018-06-14T17:20:16.366Z,25.90
2018-06-14T17:22:45.538Z,25.30
2018-06-14T17:25:14.615Z,24.90
2018-06-14T17:27:43.763Z,24.60
2018-06-14T17:30:13.003Z,24.20
2018-06-14T17:32:42.138Z,24.00
2018-06-14T17:35:11.494Z,23.80
2018-06-14T17:37:40.624Z,23.70
2018-06-14T17:40:09.733Z,23.60
2018-06-14T17:42:38.836Z,23.60
2018-06-14T17:45:07.911Z,23.50
2018-06-14T17:47:37.055Z,23.40
2018-06-14T17:50:06.315Z,23.30
2018-06-14T17:52:35.934Z,23.40
2018-06-14T17:55:05.380Z,23.30
2018-06-14T17:57:34.543Z,23.20
2018-06-14T18:00:03.871Z,23.20
2018-06-14T18:02:33.016Z,23.20
2018-06-14T18:05:02.816Z,23.00
2018-06-14T18:07:31.333Z,22.90
2018-06-14T18:10:00.590Z,22.80
2018-06-14T18:12:29.799Z,22.80
2018-06-14T18:14:58.929Z,22.70
2018-06-14T18:17:28.035Z,22.60
2018-06-14T18:19:57.190Z,22.60
2018-06-14T18:22:26.292Z,22.60
2018-06-14T18:24:55.391Z,22.60
2018-06-14T18:27:24.525Z,22.60
2018-06-14T18:29:53.602Z,22.60
2018-06-14T18:32:22.717Z,22.50
2018-06-14T18:34:51.904Z,22.50
2018-06-14T18:37:21.208Z,22.40
2018-06-14T18:39:50.594Z,22.30
2018-06-14T18:42:19.666Z,22.30
2018-06-14T18:44:48.883Z,22.20
2018-06-14T18:47:18.079Z,22.00
2018-06-14T18:49:47.210Z,21.70
2018-06-14T18:52:16.311Z,21.60
2018-06-14T18:54:45.619Z,21.50
2018-06-14T18:57:14.954Z,21.40
2018-06-14T18:59:44.107Z,21.50
2018-06-14T19:02:13.273Z,21.50
2018-06-14T19:04:42.538Z,21.50
2018-06-14T19:07:12.267Z,21.50
2018-06-14T19:09:41.461Z,21.50
2018-06-14T19:12:10.728Z,21.50
2018-06-14T19:14:39.808Z,21.50
2018-06-14T19:17:09.064Z,21.00
2018-06-14T19:19:38.397Z,20.60
2018-06-14T19:22:07.559Z,20.40
2018-06-14T19:24:36.659Z,20.00
2018-06-14T19:27:06.037Z,19.50
2018-06-14T19:29:35.161Z,19.00
2018-06-14T19:32:04.264Z,18.70
2018-06-14T19:34:33.327Z,18.40
2018-06-14T19:37:02.467Z,18.20
2018-06-14T19:39:31.654Z,18.20
2018-06-14T19:42:00.760Z,18.20
2018-06-14T19:44:29.937Z,18.00
2018-06-14T19:46:59.531Z,17.90
2018-06-14T19:49:28.604Z,17.50
2018-06-14T19:51:57.680Z,17.30
2018-06-14T19:54:27.627Z,16.90
2018-06-14T19:56:56.708Z,16.70
2018-06-14T19:59:25.823Z,16.50
2018-06-14T20:01:54.940Z,16.30
2018-06-14T20:04:24.027Z,16.20
2018-06-14T20:06:53.127Z,16.10
2018-06-14T20:09:22.338Z,16.10
2018-06-14T20:11:51.443Z,16.00
2018-06-14T20:14:20.524Z,16.00
2018-06-14T20:16:49.618Z,16.00
2018-06-14T20:19:18.715Z,16.00
2018-06-14T20:21:47.811Z,16.00
2018-06-14T20:24:16.910Z,16.00
2018-06-14T20:26:45.967Z,16.10
2018-06-14T20:29:15.071Z,16.10
2018-06-14T20:31:44.139Z,16.10
2018-06-14T20:34:13.279Z,16.10
2018-06-14T20:36:42.394Z,16.20
2018-06-14T20:39:13.059Z,16.20
2018-06-14T20:41:42.186Z,16.20
2018-06-14T20:44:11.239Z,16.30
2018-06-14T20:46:40.311Z,16.30
2018-06-14T20:49:09.461Z,16.30
2018-06-14T20:51:38.612Z,16.40
2018-06-14T20:54:07.699Z,16.30
2018-06-14T20:56:36.820Z,16.40
2018-06-14T20:59:05.936Z,16.50
2018-06-14T21:01:35.088Z,16.50
2018-06-14T21:04:04.162Z,16.60
2018-06-14T21:06:33.251Z,16.60
2018-06-14T21:09:02.387Z,16.60
2018-06-14T21:11:31.474Z,16.60
2018-06-14T21:14:00.569Z,16.70
2018-06-14T21:16:29.695Z,16.70
2018-06-14T21:18:58.776Z,16.70
2018-06-14T21:21:27.852Z,16.80
2018-06-14T21:23:56.972Z,16.90
2018-06-14T21:26:26.054Z,16.90
2018-06-14T21:28:55.386Z,17.00
2018-06-14T21:31:24.439Z,17.10
2018-06-14T21:33:53.699Z,17.20
2018-06-14T21:36:22.869Z,17.30
2018-06-14T21:38:52.041Z,17.30
2018-06-14T21:41:21.133Z,17.30
2018-06-14T21:43:50.213Z,17.40
2018-06-14T21:46:19.287Z,17.30
2018-06-14T21:48:48.370Z,17.30
2018-06-14T21:51:17.459Z,17.30
2018-06-14T21:53:46.527Z,17.30
2018-06-14T21:56:15.708Z,17.30
2018-06-14T21:58:44.785Z,17.30
2018-06-14T22:01:13.844Z,17.30
2018-06-14T22:03:48.466Z,17.30
2018-06-14T22:08:46.151Z,17.40
2018-06-14T22:11:15.213Z,17.40
2018-06-14T22:13:44.315Z,17.40
2018-06-14T22:16:13.388Z,17.30
2018-06-14T22:21:11.507Z,17.20
2018-06-14T22:23:40.591Z,17.10
2018-06-14T22:26:09.710Z,17.10
2018-06-14T22:28:38.804Z,17.10
2018-06-14T22:31:08.017Z,17.10
2018-06-14T22:33:48.454Z,17.10
2018-06-14T22:36:17.748Z,17.10
2018-06-14T22:38:47.135Z,17.20
2018-06-14T22:41:16.247Z,17.20
2018-06-14T22:43:45.340Z,17.20
2018-06-14T22:46:14.425Z,17.20
2018-06-14T22:48:43.515Z,17.30
2018-06-14T22:51:15.108Z,17.40
2018-06-14T22:53:44.301Z,17.40
2018-06-14T22:56:13.477Z,17.50
2018-06-14T22:58:42.609Z,17.50
2018-06-14T23:01:32.056Z,17.50
2018-06-14T23:04:01.744Z,17.50
2018-06-14T23:06:30.905Z,17.60
2018-06-14T23:09:00.922Z,17.60
2018-06-14T23:11:29.995Z,17.60
2018-06-14T23:13:59.083Z,17.50
2018-06-14T23:16:28.180Z,17.50
2018-06-14T23:18:57.355Z,17.60
2018-06-14T23:21:26.547Z,17.50
2018-06-14T23:23:55.648Z,17.50
2018-06-14T23:26:24.747Z,17.50
2018-06-14T23:28:53.803Z,17.60
2018-06-14T23:31:22.889Z,17.60
2018-06-14T23:33:51.951Z,17.60
2018-06-14T23:36:21.052Z,17.60
2018-06-14T23:38:50.168Z,17.60
2018-06-14T23:41:19.294Z,17.60
2018-06-14T23:43:48.364Z,17.60
2018-06-14T23:46:17.471Z,17.60
2018-06-14T23:48:46.826Z,17.60
2018-06-14T23:51:15.923Z,17.60
2018-06-14T23:53:45.001Z,17.60
2018-06-14T23:56:14.070Z,17.60
2018-06-14T23:58:43.416Z,17.70
